WEATHER DATA

YESTERDAY
Time Temp. Dewp. Hum. Wind dir Wind speed Wind gust Bar. 1h Prec. 24h Prec.
00:02 22.3 17.2 73 135 0.3 0.6 1015.9 0.0000 0.0000
00:12 22.1 17 73 0 0.3 1015.9 0.0000 0.0000
00:21 21.9 17.1 74 204 0.3 0.6 1015.8 0.0000 0.0000
00:31 21.7 16.9 74 0 0.3 1015.8 0.0000 0.0000
00:42 21.5 16.9 75 145 0.3 0.6 1015.8 0.0000 0.0000
00:52 21.3 16.7 75 130 0.3 0.6 1015.9 0.0000 0.0000
01:02 21.2 16.6 75 158 0.3 0.6 1015.8 0.0000 0.0000
01:12 21 16.4 75 158 0.3 0.6 1015.8 0.0000 0.0000
01:22 20.9 16.5 76 154 0.3 0.6 1015.7 0.0000 0.0000
01:32 20.8 16.6 77 159 0.3 0.6 1015.7 0.0000 0.0000
01:42 20.6 16.4 77 161 0.3 0.6 1015.6 0.0000 0.0000
01:53 20.5 16.3 77 158 0.3 0.8 1015.5 0.0000 0.0000
02:03 20.3 16.3 78 156 0.3 0.8 1015.5 0.0000 0.0000
02:13 20.2 16.2 78 158 0.3 0.8 1015.4 0.0000 0.0000
02:23 20.2 16.2 78 156 0.3 0.6 1015.3 0.0000 0.0000
02:33 20.1 16.1 78 158 0.6 0.8 1015.4 0.0000 0.0000
02:43 20 16.1 78 128 0.3 0.8 1015.4 0.0000 0.0000
02:52 19.9 16 78 131 0.6 0.8 1015.5 0.0000 0.0000
03:04 19.9 16 78 135 0.6 1.1 1015.6 0.0000 0.0000
03:13 19.9 16 78 143 0.6 0.8 1015.5 0.0000 0.0000
03:23 19.9 16 78 146 0.3 1.1 1015.5 0.0000 0.0000
03:33 19.9 16 78 143 0.3 0.6 1015.4 0.0000 0.0000
03:44 19.8 15.9 78 153 0.3 0.6 1015.5 0.0000 0.0000
03:54 19.7 15.8 78 147 0.3 0.6 1015.4 0.0000 0.0000
04:04 19.7 16 79 135 0.3 0.8 1015.5 0.0000 0.0000
04:14 19.6 16.1 80 90 0.3 0.8 1015.3 0.0000 0.0000
04:24 19.6 16.3 81 135 0.3 0.8 1015.2 0.0000 0.0000
04:34 19.6 16.3 81 135 0.3 0.8 1015 0.0000 0.0000
04:44 19.6 16.3 81 90 0.3 0.6 1015 0.0000 0.0000
04:55 19.7 16.4 81 90 0.3 0.8 1015 0.0000 0.0000
05:04 19.7 16.5 82 135 0.6 0.8 1014.9 0.0000 0.0000
05:14 19.8 16.6 82 141 0.3 0.8 1014.9 0.0000 0.0000
05:25 20 16.8 82 141 0.3 0.8 1014.9 0.0000 0.0000
05:35 20.4 17.2 82 139 0.3 0.8 1014.8 0.0000 0.0000
05:45 21.3 17.9 81 135 0.3 0.8 1014.8 0.0000 0.0000
05:55 22.3 18.5 79 126 0.3 0.8 1014.9 0.0000 0.0000
06:05 23.1 18.6 76 127 0.3 1.1 1014.8 0.0000 0.0000
06:15 23.5 18.6 74 135 0.6 1.1 1014.9 0.0000 0.0000
06:25 23.5 18.6 74 135 0.3 1.1 1014.7 0.0000 0.0000
06:35 23.7 18.8 74 135 0.3 0.8 1014.9 0.0000 0.0000
06:46 24.2 18.8 72 126 0.6 1.7 1014.8 0.0000 0.0000
06:55 24.2 18.8 72 142 0.6 1.4 1014.9 0.0000 0.0000
07:05 24.3 18.9 72 162 0.6 1.9 1014.9 0.0000 0.0000
07:16 24.4 19 72 149 0.3 1.4 1015 0.0000 0.0000
07:26 24.6 19.2 72 161 0.3 1.7 1014.9 0.0000 0.0000
07:36 24.9 19.3 71 161 0.6 1.9 1014.8 0.0000 0.0000
07:43 25.1 19.5 71 150 0.3 0.8 1014.8 0.0000 0.0000
07:52 25.4 19.5 70 165 0.8 2.2 1014.8 0.0000 0.0000
08:03 25.6 19.7 70 141 0.6 1.1 1014.7 0.0000 0.0000
08:13 25.9 19.8 69 169 0.6 2.2 1014.6 0.0000 0.0000
08:23 26.2 19.8 68 167 0.6 1.7 1014.7 0.0000 0.0000
08:33 26.5 19.9 67 137 0.6 1.7 1014.6 0.0000 0.0000
08:43 26.8 20.2 67 172 0.6 1.9 1014.8 0.0000 0.0000
08:53 26.9 20 66 135 0.6 1.4 1014.6 0.0000 0.0000
09:03 27.2 20.3 66 149 0.6 1.9 1014.5 0.0000 0.0000
09:13 27.5 20.6 66 161 0.3 1.1 1014.4 0.0000 0.0000
09:24 27.7 20.5 65 161 0.8 1.9 1014.6 0.0000 0.0000
09:34 27.9 20.7 65 150 0.6 1.9 1014.5 0.0000 0.0000
09:43 28.1 20.9 65 142 0.6 1.7 1014.4 0.0000 0.0000
09:54 28.3 21.1 65 143 0.6 1.7 1014.5 0.0000 0.0000
10:04 28.4 20.7 63 160 0.6 1.9 1014.4 0.0000 0.0000
10:14 28.5 20.8 63 163 0.8 1.7 1014.1 0.0000 0.0000
10:24 28.7 21.5 65 135 0.6 1.9 1014.4 0.0000 0.0000
10:35 28.9 20.9 62 182 0.6 1.9 1014.4 0.0000 0.0000
10:43 29 21.2 63 193 0.8 2.5 1014.4 0.0000 0.0000
10:54 29.1 21.1 62 175 0.8 1.9 1014.4 0.0000 0.0000
11:05 29.1 21.1 62 168 1.1 2.5 1014.5 0.0000 0.0000
11:15 29.4 22.1 65 157 0.8 2.2 1014.5 0.0000 0.0000
11:25 29.5 21.5 62 158 0.8 3.1 1014.3 0.0000 0.0000
11:34 29.6 21.3 61 252 0.8 2.2 1014.6 0.0000 0.0000
11:45 29.7 21.4 61 175 0.8 1.9 1014.5 0.0000 0.0000
11:55 29.8 21.2 60 220 1.1 2.8 1014.7 0.0000 0.0000
12:05 29.8 21.5 61 159 0.8 2.2 1014.8 0.0000 0.0000
12:15 29.8 21.5 61 164 0.6 1.4 1014.8 0.0000 0.0000
12:26 29.9 21.8 62 151 0.6 2.5 1014.5 0.0000 0.0000
12:35 30.1 21.8 61 152 0.8 2.5 1014.3 0.0000 0.0000
12:45 30.2 21.8 61 166 1.1 3.1 1014.5 0.0000 0.0000
12:56 30.5 22.1 61 159 0.8 1.9 1014.6 0.0000 0.0000
13:06 30.5 21.9 60 156 0.8 2.2 1014.5 0.0000 0.0000
13:16 30.6 22.2 61 188 0.6 2.5 1014.6 0.0000 0.0000
13:26 30.8 22.1 60 174 0.8 3.3 1014.7 0.0000 0.0000
13:36 31 22 59 160 0.8 2.5 1014.6 0.0000 0.0000
13:46 31.1 21.9 58 170 0.8 3.1 1014.5 0.0000 0.0000
13:56 31.4 22.4 59 216 0.8 2.2 1014.4 0.0000 0.0000
14:07 31.6 22 57 184 0.8 2.8 1014.4 0.0000 0.0000
14:16 31.8 21.9 56 208 1.1 3.6 1014.5 0.0000 0.0000
14:26 31.9 21.7 55 197 1.1 3.1 1014.6 0.0000 0.0000
14:36 32 21.5 54 233 1.1 3.3 1014.6 0.0000 0.0000
14:47 32.2 21.7 54 199 1.4 4.7 1014.6 0.0000 0.0000
14:57 32.2 22 55 160 1.1 3.1 1014.7 0.0000 0.0000
15:06 32.4 22.5 56 90 0.6 1.9 1014.6 0.0000 0.0000
15:17 32.6 22.1 54 168 1.1 2.8 1014.5 0.0000 0.0000
15:27 32.7 22.2 54 185 0.8 3.3 1014.5 0.0000 0.0000
15:37 32.7 22.2 54 168 0.8 2.5 1014.4 0.0000 0.0000
15:47 32.8 22.3 54 162 0.8 2.8 1014.5 0.0000 0.0000
15:57 33.1 22.5 54 212 0.8 2.2 1014.4 0.0000 0.0000
16:07 33.3 22.4 53 171 0.8 2.2 1014.5 0.0000 0.0000
16:17 33.3 22.1 52 208 1.1 3.3 1014.6 0.0000 0.0000
16:28 33.1 21.9 52 199 1.1 3.9 1014.6 0.0000 0.0000
16:38 32.9 21.7 52 151 1.1 3.1 1014.6 0.0000 0.0000
16:48 32.2 21.4 53 161 1.1 3.3 1014.5 0.0000 0.0000
16:57 32 21.2 53 195 1.1 3.9 1014.4 0.0000 0.0000
17:08 31.9 21.4 54 194 0.8 1.9 1014.3 0.0000 0.0000
17:18 32.2 21.7 54 180 0.6 1.9 1014.3 0.0000 0.0000
17:28 32.5 22 54 235 0.6 1.9 1014 0.0000 0.0000
17:38 32.8 21.6 52 240 1.1 3.1 1014.1 0.0000 0.0000
17:48 32.6 21.5 52 225 0.8 3.1 1014.3 0.0000 0.0000
17:58 32.5 21.4 52 225 0.8 2.2 1014.1 0.0000 0.0000
18:08 32.2 21.4 53 250 0.6 1.7 1014.3 0.0000 0.0000
18:19 32.3 21.2 52 251 0.8 2.5 1014.1 0.0000 0.0000
18:29 32.5 21.7 53 270 0.6 1.4 1014.1 0.0000 0.0000
18:39 32.4 21.6 53 244 0.6 1.7 1014.3 0.0000 0.0000
18:49 32.4 21.3 52 229 0.6 1.7 1014.1 0.0000 0.0000
18:59 32.2 20.8 51 251 1.1 2.5 1014.3 0.0000 0.0000
19:09 32 20.9 52 243 0.8 2.2 1014 0.0000 0.0000
19:19 31.9 20.8 52 237 0.8 2.2 1014.3 0.0000 0.0000
19:29 31.5 20.8 53 270 0.6 1.9 1014.4 0.0000 0.0000
19:39 31.1 20.7 54 212 0.6 1.4 1014.4 0.0000 0.0000
19:49 30.8 20.4 54 229 0.3 1.1 1014.4 0.0000 0.0000
19:59 30.6 20.5 55 240 0.6 1.4 1014.5 0.0000 0.0000
20:10 30.5 20.4 55 231 0.6 1.7 1014.5 0.0000 0.0000
20:20 30.2 20.5 56 270 0.3 1.4 1014.7 0.0000 0.0000
20:29 30 20.3 56 228 0.6 1.7 1014.5 0.0000 0.0000
20:39 29.7 20 56 225 0.6 1.7 1014.7 0.0000 0.0000
20:50 29.3 19.9 57 239 0.3 0.8 1014.6 0.0000 0.0000
21:00 29 19.9 58 225 0.3 0.6 1014.6 0.0000 0.0000
21:10 28.7 20.2 60 0 0.6 1014.7 0.0000 0.0000
21:20 28.4 20.2 61 0 0.6 1014.8 0.0000 0.0000
21:30 28.1 20.1 62 173 0.3 0.6 1014.7 0.0000 0.0000
21:40 27.7 20 63 0 0.6 1014.7 0.0000 0.0000
21:50 27.4 19.7 63 0 0.6 1014.7 0.0000 0.0000
22:01 27 19.6 64 164 0.3 0.6 1014.9 0.0000 0.0000
22:10 26.7 19.3 64 171 0.3 0.6 1014.8 0.0000 0.0000
22:31 26.1 19.3 66 175 0.3 0.6 1014.7 0.0000 0.0000
22:41 25.8 19 66 218 0.3 0.6 1014.6 0.0000 0.0000
22:51 25.5 18.9 67 171 0.3 0.6 1014.8 0.0000 0.0000
23:01 25.2 18.9 68 167 0.3 0.6 1014.8 0.0000 0.0000
23:11 25 18.9 69 170 0.3 0.6 1014.7 0.0000 0.0000
23:21 24.7 18.9 70 188 0.3 0.6 1014.9 0.0000 0.0000
23:31 24.5 18.9 71 158 0.6 0.8 1015 0.0000 0.0000
23:42 24.3 18.9 72 143 0.6 0.8 1015.1 0.0000 0.0000
23:52 24.2 19.1 73 156 0.3 0.8 1015 0.0000 0.0000

DAY STATISTIC

2021-06-21
TEMPERATURE
AVERAGE
27.0
HIGH
33.3
16:07
LOW
19.6
04:14
PRESSURE
AVERAGE
1014.8
HIGH
1015.9
00:02
LOW
1014.0
17:28
DEWPOINT
AVERAGE
19.7
HIGH
22.5
15:06
LOW
15.8
03:54
HUMIDITY
AVERAGE
65
HIGH
82
05:04
LOW
51
18:59
WIND SPEED
AVERAGE
0.6
HIGH
1.4
14:47
WIND GUST
AVERAGE
1.6
HIGH
4.7
14:47
WIND DIRECTION
PREVAILING
S
39.4%
N
0.0
NE
0.0
E
2.8
SE
32.4
S
39.4
SW
16.2
W
4.9
NW
0.0
PRECIPITATION
RAIN HOUR
0.0
RAIN DAY
0.0
TEMPERATURE (°C)
LOW
19.6
HIGH
33.3
AVERAGE
27.0
PRESSURE (hpa)
LOW
1014.0
HIGH
1015.9
AVERAGE
1014.8
DEVICE